createdAt,value
2022-09-22T00:01:04.996Z,5.10
2022-09-22T00:09:31.587Z,5.70
2022-09-22T00:17:55.135Z,5.70
2022-09-22T00:26:22.766Z,6.10
2022-09-22T00:34:46.080Z,6.30
2022-09-22T00:43:19.813Z,6.40
2022-09-22T00:51:44.981Z,5.10
2022-09-22T01:00:10.403Z,5.20
2022-09-22T01:08:34.744Z,5.30
2022-09-22T01:17:19.810Z,6.70
2022-09-22T01:26:07.286Z,7.00
2022-09-22T01:34:36.435Z,6.10
2022-09-22T01:43:08.791Z,6.00
2022-09-22T01:51:54.964Z,7.00
2022-09-22T02:00:19.188Z,6.50
2022-09-22T02:08:50.932Z,6.20
2022-09-22T02:17:16.010Z,6.40
2022-09-22T02:25:41.982Z,6.40
2022-09-22T02:34:06.970Z,6.70
2022-09-22T02:42:52.399Z,7.10
2022-09-22T02:51:18.423Z,8.70
2022-09-22T02:59:41.498Z,8.10
2022-09-22T03:08:04.673Z,8.70
2022-09-22T03:16:27.555Z,12.20
2022-09-22T03:24:50.486Z,8.60
2022-09-22T03:33:13.407Z,7.50
2022-09-22T03:41:37.622Z,9.10
2022-09-22T03:50:00.495Z,6.90
2022-09-22T03:58:23.377Z,8.30
2022-09-22T04:06:46.426Z,7.90
2022-09-22T04:15:10.334Z,9.40
2022-09-22T04:23:34.421Z,8.50
2022-09-22T04:31:57.285Z,8.50
2022-09-22T04:40:20.271Z,24.30
2022-09-22T04:48:43.391Z,8.90
2022-09-22T04:57:06.290Z,16.00
2022-09-22T05:05:30.104Z,9.80
2022-09-22T05:13:53.187Z,8.50
2022-09-22T05:22:16.299Z,9.60
2022-09-22T05:30:39.461Z,9.90
2022-09-22T05:39:03.162Z,9.10
2022-09-22T05:47:26.095Z,11.90
2022-09-22T05:55:48.961Z,11.00
2022-09-22T06:04:11.939Z,9.10
2022-09-22T06:12:35.050Z,98.30
2022-09-22T06:20:59.947Z,8.50
2022-09-22T06:29:22.918Z,9.80
2022-09-22T06:37:47.582Z,7.60
2022-09-22T06:46:11.339Z,6.40
2022-09-22T06:54:34.393Z,6.00
2022-09-22T07:03:04.524Z,8.40
2022-09-22T07:11:27.392Z,8.00
2022-09-22T07:19:52.272Z,26.60
2022-09-22T07:28:15.935Z,7.40
2022-09-22T07:36:40.192Z,7.60
2022-09-22T07:45:15.810Z,6.00
2022-09-22T07:53:40.545Z,6.50
2022-09-22T08:02:03.540Z,6.90
2022-09-22T08:10:26.947Z,16.20
2022-09-22T08:18:56.333Z,10.60
2022-09-22T08:27:20.112Z,4.30
2022-09-22T08:35:58.100Z,5.00
2022-09-22T08:44:49.399Z,6.30
2022-09-22T09:02:41.440Z,4.50
2022-09-22T09:11:36.648Z,5.10
2022-09-22T09:20:16.873Z,7.80
2022-09-22T09:29:03.482Z,6.10
2022-09-22T09:37:27.103Z,4.60
2022-09-22T09:46:12.010Z,6.80
2022-09-22T09:54:38.019Z,4.40
2022-09-22T10:03:13.857Z,5.50
2022-09-22T10:11:38.878Z,4.10
2022-09-22T10:20:23.301Z,3.60
2022-09-22T10:29:09.392Z,4.30
2022-09-22T10:37:33.124Z,2.50
2022-09-22T10:46:09.794Z,4.50
2022-09-22T10:54:51.835Z,3.60
2022-09-22T11:03:29.887Z,4.30
2022-09-22T11:12:17.976Z,2.20
2022-09-22T11:20:49.271Z,2.00
2022-09-22T11:29:30.687Z,5.10
2022-09-22T11:38:09.533Z,2.10
2022-09-22T11:46:58.144Z,3.90
2022-09-22T11:55:50.513Z,3.90
2022-09-22T12:04:24.479Z,23.50
2022-09-22T12:12:50.638Z,1.60
2022-09-22T12:21:20.619Z,1.20
2022-09-22T12:29:44.592Z,6.80
2022-09-22T12:38:13.167Z,3.70
2022-09-22T12:46:38.547Z,1.40
2022-09-22T12:55:40.923Z,2.50
2022-09-22T13:04:19.548Z,0.80
2022-09-22T13:13:09.445Z,1.30
2022-09-22T13:21:52.880Z,1.70
2022-09-22T13:30:19.449Z,4.60
2022-09-22T13:38:55.503Z,2.20
2022-09-22T13:47:24.691Z,4.50
2022-09-22T13:55:55.152Z,3.30
2022-09-22T14:04:22.033Z,4.40
2022-09-22T14:12:46.728Z,2.20
2022-09-22T14:21:11.966Z,3.30
2022-09-22T14:29:38.964Z,3.60
2022-09-22T14:38:19.228Z,7.50
2022-09-22T14:46:45.241Z,4.30
2022-09-22T14:55:31.627Z,4.20
2022-09-22T15:04:12.746Z,35.10
2022-09-22T15:12:40.345Z,13.70
2022-09-22T15:21:15.662Z,5.90
2022-09-22T15:29:42.433Z,4.00
2022-09-22T15:38:17.891Z,4.80
2022-09-22T15:46:43.416Z,7.20
2022-09-22T15:55:06.483Z,11.30
2022-09-22T16:03:31.371Z,15.10
2022-09-22T16:11:56.488Z,18.50
2022-09-22T16:20:21.320Z,9.80
2022-09-22T16:28:45.608Z,10.60
2022-09-22T16:37:10.592Z,25.80
2022-09-22T16:45:52.275Z,18.50
2022-09-22T16:54:17.836Z,39.90
2022-09-22T17:02:44.001Z,79.00
2022-09-22T17:11:07.954Z,42.70
2022-09-22T17:19:31.056Z,39.10
2022-09-22T17:27:54.031Z,204.20
2022-09-22T17:36:20.308Z,125.50
2022-09-22T17:44:43.543Z,47.40
2022-09-22T17:53:25.331Z,51.60
2022-09-22T18:01:51.981Z,56.60
2022-09-22T18:10:17.537Z,49.80
2022-09-22T18:18:41.566Z,78.10
2022-09-22T18:27:06.305Z,45.30
2022-09-22T18:35:32.860Z,28.10
2022-09-22T18:43:55.934Z,40.30
2022-09-22T18:52:25.175Z,58.80
2022-09-22T19:00:52.966Z,42.90
2022-09-22T19:09:18.370Z,47.00
2022-09-22T19:17:45.634Z,40.80
2022-09-22T19:26:10.819Z,42.80
2022-09-22T19:34:35.139Z,58.80
2022-09-22T19:43:04.057Z,86.50
2022-09-22T19:51:27.481Z,70.30
2022-09-22T19:59:51.022Z,57.60
2022-09-22T20:08:16.059Z,52.90
2022-09-22T20:16:44.669Z,38.70
2022-09-22T20:25:25.836Z,32.70
2022-09-22T20:33:48.936Z,21.00
2022-09-22T20:42:15.692Z,11.50
2022-09-22T20:50:38.579Z,53.30
2022-09-22T20:59:03.507Z,12.20
2022-09-22T21:07:26.528Z,9.40
2022-09-22T21:15:51.224Z,10.10
2022-09-22T21:24:16.468Z,10.50
2022-09-22T21:32:39.524Z,8.80
2022-09-22T21:41:06.064Z,8.30
2022-09-22T21:49:29.825Z,8.80
2022-09-22T21:57:53.684Z,7.90
2022-09-22T22:06:19.290Z,8.10
2022-09-22T22:14:49.032Z,7.60
2022-09-22T22:23:12.908Z,7.50
2022-09-22T22:31:35.918Z,7.90
2022-09-22T22:39:58.884Z,7.10
2022-09-22T22:48:23.238Z,8.00
2022-09-22T22:56:51.028Z,7.30
2022-09-22T23:05:14.626Z,7.60
2022-09-22T23:13:40.595Z,7.80
2022-09-22T23:22:04.228Z,7.40
2022-09-22T23:30:28.081Z,8.00
2022-09-22T23:38:57.248Z,6.40
2022-09-22T23:47:20.543Z,6.80
2022-09-22T23:55:45.253Z,7.00
